Time;durP1;ratioP1;P1;durP2;ratioP2;P2;SDS_P1;SDS_P2;PMS_P1;PMS_P2;Temp;Humidity;BMP_temperature;BMP_pressure;BME280_temperature;BME280_humidity;BME280_pressure;Samples;Min_cycle;Max_cycle;Signal;HPM_P1;HPM_P2
2021/03/01 00:01:55;;;;;;;59.95;34.67;;;154.40;1664.00;;;;;;5035575;28;20021;-75
2021/03/01 00:04:21;;;;;;;56.58;34.25;;;154.30;1664.00;;;;;;5037836;28;20038;-75
2021/03/01 00:06:47;;;;;;;60.28;36.65;;;154.30;1689.60;;;;;;5035563;28;20029;-75
2021/03/01 00:09:13;;;;;;;62.30;34.03;;;154.30;1664.00;;;;;;5033604;28;20537;-75
2021/03/01 00:11:39;;;;;;;55.90;33.83;;;154.30;1664.00;;;;;;5035402;28;20025;-75
2021/03/01 00:14:05;;;;;;;56.28;34.22;;;154.30;1664.00;;;;;;5035308;28;20044;-75
2021/03/01 00:16:31;;;;;;;61.03;34.70;;;154.30;1664.00;;;;;;5035268;28;20147;-75
2021/03/01 00:18:56;;;;;;;62.75;36.17;;;154.30;1664.00;;;;;;5033951;28;20033;-76
2021/03/01 00:21:22;;;;;;;60.50;36.47;;;154.20;1689.60;;;;;;5035172;28;20029;-76
2021/03/01 00:23:48;;;;;;;62.33;34.83;;;154.10;1689.60;;;;;;5035026;28;20021;-75
2021/03/01 00:26:14;;;;;;;66.78;36.47;;;154.00;1715.20;;;;;;5035018;28;20520;-75
2021/03/01 00:28:41;;;;;;;58.33;35.22;;;154.00;1715.20;;;;;;5035041;28;20022;-75
2021/03/01 00:31:07;;;;;;;66.18;35.05;;;154.00;1689.60;;;;;;5033693;28;20029;-75
2021/03/01 00:33:33;;;;;;;57.22;35.30;;;154.00;1715.20;;;;;;5034981;28;20053;-75
2021/03/01 00:35:59;;;;;;;55.45;34.53;;;154.10;1689.60;;;;;;5033617;28;20025;-74
2021/03/01 00:38:25;;;;;;;57.65;34.53;;;154.10;1689.60;;;;;;5035979;28;20029;-75
2021/03/01 00:40:51;;;;;;;57.15;33.55;;;154.00;1689.60;;;;;;5033569;28;20498;-75
2021/03/01 00:43:17;;;;;;;57.80;32.17;;;154.00;1715.20;;;;;;5034627;28;20124;-74
2021/03/01 00:45:43;;;;;;;55.28;32.17;;;154.00;1715.20;;;;;;5034695;28;20025;-75
2021/03/01 00:48:09;;;;;;;62.05;32.55;;;153.90;1715.20;;;;;;5033415;28;20112;-75
2021/03/01 00:50:35;;;;;;;54.63;32.83;;;154.00;1689.60;;;;;;5033316;28;20022;-74
2021/03/01 00:53:01;;;;;;;60.95;34.13;;;154.10;1664.00;;;;;;5034433;28;20084;-75
2021/03/01 00:55:27;;;;;;;78.90;42.15;;;154.10;1664.00;;;;;;5033292;28;20025;-75
2021/03/01 00:57:52;;;;;;;63.78;36.05;;;154.10;1664.00;;;;;;5033245;28;20064;-74
2021/03/01 01:00:19;;;;;;;58.78;34.40;;;154.10;1664.00;;;;;;5033067;28;20067;-76
2021/03/01 01:02:46;;;;;;;56.78;34.40;;;154.10;1664.00;;;;;;5034349;28;20017;-75
2021/03/01 01:05:13;;;;;;;58.20;34.28;;;154.00;1664.00;;;;;;5034473;28;20082;-76
2021/03/01 01:07:39;;;;;;;60.33;34.80;;;154.00;1664.00;;;;;;5032928;28;20028;-75
2021/03/01 01:10:06;;;;;;;65.05;33.55;;;154.00;1689.60;;;;;;5033048;28;20025;-75
2021/03/01 01:12:36;;;;;;;63.20;34.63;;;153.90;1689.60;;;;;;5032871;28;20120;-78
2021/03/01 01:15:08;;;;;;;61.28;34.22;;;153.90;1689.60;;;;;;5034141;28;20025;-76
2021/03/01 01:17:34;;;;;;;52.35;31.08;;;153.90;1715.20;;;;;;5036589;28;20083;-76
2021/03/01 01:20:00;;;;;;;56.90;33.63;;;153.90;1715.20;;;;;;5044322;28;20347;-76
2021/03/01 01:22:26;;;;;;;59.92;34.08;;;153.70;1715.20;;;;;;5041072;28;20541;-75
2021/03/01 01:24:51;;;;;;;57.42;32.92;;;153.70;1740.80;;;;;;5042092;28;20119;-77
2021/03/01 01:27:17;;;;;;;56.30;33.60;;;153.60;1715.20;;;;;;5043109;28;20072;-76
2021/03/01 01:29:43;;;;;;;56.47;32.35;;;128.90;1740.80;;;;;;5033911;28;20108;-75
2021/03/01 01:32:09;;;;;;;60.55;34.38;;;128.90;1715.20;;;;;;5033875;28;20100;-77
2021/03/01 01:34:35;;;;;;;56.22;31.80;;;128.90;1740.80;;;;;;5033838;28;20029;-75
2021/03/01 01:37:01;;;;;;;51.78;29.58;;;128.80;1740.80;;;;;;5034135;28;20382;-75
2021/03/01 01:39:26;;;;;;;44.97;27.77;;;128.70;1766.40;;;;;;5032531;28;20032;-75
2021/03/01 01:41:52;;;;;;;44.72;25.42;;;128.70;1766.40;;;;;;5033786;28;20028;-75
2021/03/01 01:44:18;;;;;;;43.85;25.25;;;128.60;1766.40;;;;;;5033918;28;20449;-77
2021/03/01 01:46:44;;;;;;;46.47;25.30;;;128.70;1766.40;;;;;;5033697;28;20104;-76
2021/03/01 01:49:10;;;;;;;44.60;25.55;;;128.70;1766.40;;;;;;5033643;28;20025;-75
2021/03/01 01:51:36;;;;;;;47.40;26.55;;;128.60;1740.80;;;;;;5032077;28;20425;-75
2021/03/01 01:54:02;;;;;;;44.85;24.85;;;128.60;1766.40;;;;;;5033651;28;20033;-75
2021/03/01 01:56:29;;;;;;;42.60;24.83;;;128.60;1792.00;;;;;;5033495;28;20022;-75
2021/03/01 01:58:54;;;;;;;42.63;24.48;;;128.60;1766.40;;;;;;5032266;28;20378;-75
2021/03/01 02:01:20;;;;;;;43.00;24.40;;;128.70;1740.80;;;;;;5033525;28;20021;-77
2021/03/01 02:03:56;;;;;;;39.78;23.73;;;128.80;1715.20;;;;;;5033453;28;20057;-76
2021/03/01 02:06:40;;;;;;;44.03;25.38;;;128.80;1740.80;;;;;;5032178;28;20079;-77
2021/03/01 02:09:19;;;;;;;40.30;24.08;;;128.80;1715.20;;;;;;5033095;28;20340;-75
2021/03/01 02:11:56;;;;;;;37.58;22.08;;;128.80;1715.20;;;;;;5032150;28;20029;-75
2021/03/01 02:14:34;;;;;;;35.65;22.17;;;128.80;1715.20;;;;;;5033493;28;20032;-77
2021/03/01 02:17:00;;;;;;;37.42;21.67;;;128.70;1740.80;;;;;;5033429;28;20592;-76
2021/03/01 02:19:27;;;;;;;35.30;20.92;;;128.70;1740.80;;;;;;5033459;28;20104;-75
2021/03/01 02:21:53;;;;;;;33.92;20.13;;;128.60;1766.40;;;;;;5033294;28;20107;-75
2021/03/01 02:24:44;;;;;;;35.47;21.02;;;128.50;1766.40;;;;;;5031985;28;20034;-76
2021/03/01 02:27:13;;;;;;;34.78;20.10;;;128.50;1792.00;;;;;;5033346;28;20488;-76
2021/03/01 02:29:41;;;;;;;34.22;20.33;;;128.50;1766.40;;;;;;5033286;28;20470;-75
2021/03/01 02:32:09;;;;;;;30.67;19.75;;;128.40;1792.00;;;;;;5032941;28;20025;-75
2021/03/01 02:34:37;;;;;;;34.43;19.93;;;128.40;1817.60;;;;;;5037159;28;20109;-75
2021/03/01 02:37:07;;;;;;;37.83;20.67;;;128.30;1817.60;;;;;;5035945;28;20390;-76
2021/03/01 02:39:37;;;;;;;32.03;19.30;;;128.30;1817.60;;;;;;5036133;28;20025;-75
2021/03/01 02:42:05;;;;;;;32.90;19.48;;;128.50;1766.40;;;;;;5035814;28;20056;-76
2021/03/01 02:44:31;;;;;;;35.33;20.63;;;128.40;1792.00;;;;;;5036212;28;20413;-78
2021/03/01 02:46:59;;;;;;;36.22;22.15;;;128.40;1792.00;;;;;;5036892;28;20071;-75
2021/03/01 02:49:27;;;;;;;38.65;22.15;;;128.40;1792.00;;;;;;5037024;28;20092;-76
2021/03/01 02:51:53;;;;;;;41.60;22.08;;;128.50;1766.40;;;;;;5036636;28;20123;-75
2021/03/01 02:54:22;;;;;;;39.25;21.63;;;128.40;1766.40;;;;;;5035594;28;20120;-76
2021/03/01 02:56:50;;;;;;;39.33;22.27;;;128.50;1740.80;;;;;;5035538;28;20021;-75
2021/03/01 02:59:20;;;;;;;31.98;20.70;;;128.40;1792.00;;;;;;5035446;28;20029;-75
2021/03/01 03:01:47;;;;;;;35.72;21.13;;;128.30;1792.00;;;;;;5036694;28;20025;-76
2021/03/01 03:04:15;;;;;;;35.10;19.98;;;128.10;1868.80;;;;;;5036543;28;20025;-75
2021/03/01 03:06:42;;;;;;;37.20;21.25;;;128.10;1817.60;;;;;;5035340;28;20031;-75
2021/03/01 03:09:10;;;;;;;30.40;19.92;;;128.10;1817.60;;;;;;5035335;28;20045;-75
2021/03/01 03:11:42;;;;;;;31.77;19.48;;;128.20;1843.20;;;;;;5035218;28;20028;-75
2021/03/01 03:14:09;;;;;;;35.30;20.17;;;128.30;1792.00;;;;;;5036513;28;20061;-76
2021/03/01 03:16:36;;;;;;;30.38;19.48;;;128.40;1792.00;;;;;;5036467;28;20057;-74
2021/03/01 03:19:05;;;;;;;34.22;21.40;;;128.50;1766.40;;;;;;5035130;28;20033;-75
2021/03/01 03:21:32;;;;;;;38.00;20.17;;;128.50;1766.40;;;;;;5036288;28;20437;-75
2021/03/01 03:23:58;;;;;;;30.90;20.20;;;128.40;1766.40;;;;;;5036217;28;20030;-75
2021/03/01 03:26:24;;;;;;;27.02;18.30;;;128.30;1792.00;;;;;;5036556;28;20032;-74
2021/03/01 03:28:50;;;;;;;32.85;18.67;;;128.10;1792.00;;;;;;5036184;28;20041;-75
2021/03/01 03:31:16;;;;;;;29.17;18.48;;;128.30;1792.00;;;;;;5034889;28;20029;-75
2021/03/01 03:33:43;;;;;;;29.83;19.00;;;128.40;1766.40;;;;;;5034922;28;20113;-75
2021/03/01 03:36:11;;;;;;;29.38;18.05;;;128.20;1766.40;;;;;;5036050;28;20359;-74
2021/03/01 03:38:46;;;;;;;33.90;19.02;;;128.40;1766.40;;;;;;5035985;28;20075;-75
2021/03/01 03:41:13;;;;;;;36.80;19.83;;;128.30;1817.60;;;;;;5036295;28;20032;-75
2021/03/01 03:43:42;;;;;;;33.40;18.77;;;128.10;1817.60;;;;;;5034847;28;20053;-78
2021/03/01 03:46:09;;;;;;;32.60;19.02;;;128.00;1868.80;;;;;;5035876;28;20051;-75
2021/03/01 03:48:36;;;;;;;32.10;19.83;;;128.00;1792.00;;;;;;5034588;28;20018;-74
2021/03/01 03:51:05;;;;;;;34.10;19.65;;;128.00;1868.80;;;;;;5035756;28;20026;-77
2021/03/01 03:53:37;;;;;;;31.80;19.38;;;128.00;1894.40;;;;;;5034263;28;20394;-75
2021/03/01 03:56:04;;;;;;;30.80;19.10;;;128.00;1843.20;;;;;;5035741;28;20033;-75
2021/03/01 03:58:35;;;;;;;32.42;19.23;;;103.30;1817.60;;;;;;5034422;28;20021;-76
2021/03/01 04:01:03;;;;;;;33.97;18.63;;;103.20;1868.80;;;;;;5035635;28;20386;-75
2021/03/01 04:03:31;;;;;;;30.35;18.83;;;103.10;1894.40;;;;;;5034196;28;20021;-74
2021/03/01 04:05:58;;;;;;;30.13;19.03;;;102.90;1920.00;;;;;;5034297;28;20029;-75
2021/03/01 04:08:28;;;;;;;34.13;20.10;;;102.90;1920.00;;;;;;5035506;28;20049;-75
2021/03/01 04:10:55;;;;;;;31.00;19.83;;;102.90;1894.40;;;;;;5035441;28;20363;-75
2021/03/01 04:13:25;;;;;;;34.72;21.25;;;102.80;1920.00;;;;;;5035335;28;20033;-77
2021/03/01 04:15:51;;;;;;;37.27;21.53;;;102.80;1945.60;;;;;;5035440;28;20017;-75
2021/03/01 04:18:23;;;;;;;35.27;22.27;;;102.80;1894.40;;;;;;5035265;28;20022;-74
2021/03/01 04:20:51;;;;;;;30.87;20.43;;;102.80;1920.00;;;;;;5034020;28;20383;-75
2021/03/01 04:23:17;;;;;;;33.77;21.77;;;102.80;1894.40;;;;;;5033893;28;20026;-74
2021/03/01 04:25:46;;;;;;;33.47;22.07;;;102.80;1868.80;;;;;;5033847;28;20120;-74
2021/03/01 04:28:14;;;;;;;40.67;22.47;;;102.90;1843.20;;;;;;5035220;28;20017;-75
2021/03/01 04:30:42;;;;;;;35.95;21.40;;;102.80;1868.80;;;;;;5034995;28;20075;-75
2021/03/01 04:33:10;;;;;;;37.10;23.23;;;102.90;1843.20;;;;;;5034971;28;20018;-75
2021/03/01 04:35:37;;;;;;;35.87;22.03;;;102.90;1894.40;;;;;;5034974;28;20029;-75
2021/03/01 04:38:03;;;;;;;33.10;21.60;;;102.80;1868.80;;;;;;5034923;28;20076;-73
2021/03/01 04:40:29;;;;;;;32.97;20.70;;;102.70;1920.00;;;;;;5035105;28;20030;-75
2021/03/01 04:42:56;;;;;;;41.50;25.03;;;102.60;1920.00;;;;;;5033550;28;20029;-75
2021/03/01 04:45:23;;;;;;;35.17;23.97;;;102.70;1868.80;;;;;;5034641;28;20068;-75
2021/03/01 04:47:51;;;;;;;52.30;32.83;;;102.80;1817.60;;;;;;5033479;28;20026;-76
2021/03/01 04:50:18;;;;;;;59.20;37.70;;;102.90;1792.00;;;;;;5034600;28;20026;-74
2021/03/01 04:52:45;;;;;;;42.07;27.73;;;103.00;1766.40;;;;;;5033125;28;20556;-75
2021/03/01 04:55:13;;;;;;;40.97;25.90;;;102.80;1894.40;;;;;;5034425;28;20097;-74
2021/03/01 04:57:40;;;;;;;46.87;27.23;;;102.90;1868.80;;;;;;5034595;28;20105;-75
2021/03/01 05:00:11;;;;;;;48.63;28.17;;;102.80;1894.40;;;;;;5034480;28;20031;-74
2021/03/01 05:02:38;;;;;;;46.90;26.13;;;102.80;1868.80;;;;;;5034404;28;20421;-74
2021/03/01 05:05:06;;;;;;;38.60;23.87;;;102.70;1894.40;;;;;;5033044;28;20037;-75
2021/03/01 05:07:34;;;;;;;48.77;26.53;;;102.70;1894.40;;;;;;5034284;28;20021;-75
2021/03/01 05:10:01;;;;;;;51.20;26.57;;;102.60;1971.20;;;;;;5034344;28;20478;-74
2021/03/01 05:12:27;;;;;;;52.00;29.47;;;102.60;1971.20;;;;;;5032996;28;20028;-75
2021/03/01 05:14:53;;;;;;;53.70;29.33;;;102.60;1971.20;;;;;;5032992;28;20025;-75
2021/03/01 05:17:19;;;;;;;55.63;30.97;;;102.50;1971.20;;;;;;5034210;28;20094;-74
2021/03/01 05:19:45;;;;;;;57.30;32.33;;;102.60;1945.60;;;;;;5032823;28;20017;-74
2021/03/01 05:22:11;;;;;;;55.67;32.67;;;102.50;1945.60;;;;;;5034016;28;20127;-74
2021/03/01 05:24:37;;;;;;;50.23;29.07;;;102.60;1894.40;;;;;;5032667;28;20120;-77
2021/03/01 05:27:03;;;;;;;50.40;30.93;;;102.70;1920.00;;;;;;5034186;28;20021;-74
2021/03/01 05:29:29;;;;;;;51.80;30.73;;;102.60;1920.00;;;;;;5034024;28;20168;-75
2021/03/01 05:31:55;;;;;;;43.93;27.47;;;102.70;1894.40;;;;;;5033916;28;20489;-74
2021/03/01 05:34:21;;;;;;;45.37;26.53;;;102.70;1920.00;;;;;;5032683;28;20099;-77
2021/03/01 05:36:47;;;;;;;41.33;27.27;;;102.80;1894.40;;;;;;5032587;28;20025;-75
2021/03/01 05:39:13;;;;;;;49.67;31.23;;;102.80;1868.80;;;;;;5032590;28;20040;-74
2021/03/01 05:41:40;;;;;;;51.97;30.97;;;102.80;1868.80;;;;;;5032531;28;20433;-75
2021/03/01 05:44:07;;;;;;;47.37;29.13;;;102.80;1894.40;;;;;;5033940;28;20063;-75
2021/03/01 05:46:34;;;;;;;53.22;29.00;;;102.80;1843.20;;;;;;5033652;28;20104;-77
2021/03/01 05:49:02;;;;;;;49.37;28.17;;;102.70;1894.40;;;;;;5033740;28;20036;-74
2021/03/01 05:51:30;;;;;;;46.40;27.27;;;102.60;1971.20;;;;;;5032403;28;20058;-75
2021/03/01 05:54:00;;;;;;;41.67;25.30;;;102.60;1920.00;;;;;;5032399;28;20111;-75
2021/03/01 05:56:27;;;;;;;42.33;25.57;;;102.60;1945.60;;;;;;5033636;28;20021;-76
2021/03/01 05:58:54;;;;;;;45.30;27.67;;;102.60;1945.60;;;;;;5033663;28;20026;-75
2021/03/01 06:01:23;;;;;;;50.97;28.80;;;102.70;1971.20;;;;;;5033589;28;20017;-75
2021/03/01 06:03:49;;;;;;;50.47;30.07;;;102.70;1945.60;;;;;;5032127;28;20497;-76
2021/03/01 06:06:15;;;;;;;51.97;30.43;;;102.60;1996.80;;;;;;5033208;28;20087;-74
2021/03/01 06:08:41;;;;;;;50.63;28.33;;;102.50;2022.40;;;;;;5031931;28;20030;-75
2021/03/01 06:11:08;;;;;;;50.93;31.37;;;102.50;2048.00;;;;;;5033469;28;20022;-75
2021/03/01 06:13:36;;;;;;;45.37;27.03;;;102.50;2048.00;;;;;;5032153;28;20095;-75
2021/03/01 06:16:04;;;;;;;59.03;27.33;;;102.60;1971.20;;;;;;5033356;28;20027;-78
2021/03/01 06:18:30;;;;;;;60.63;35.87;;;102.50;1996.80;;;;;;5033455;28;20514;-77
2021/03/01 06:21:22;;;;;;;146.90;87.07;;;102.50;1996.80;;;;;;5033301;28;20026;-77
2021/03/01 06:23:49;;;;;;;165.53;62.90;;;102.50;2048.00;;;;;;5031500;28;20037;-75
2021/03/01 06:26:28;;;;;;;52.40;26.83;;;102.50;2048.00;;;;;;5033675;28;20033;-75
2021/03/01 06:29:03;;;;;;;39.53;23.63;;;102.50;1996.80;;;;;;5033507;28;20079;-74
2021/03/01 06:31:36;;;;;;;42.90;25.10;;;102.70;1945.60;;;;;;5035825;28;20104;-77
2021/03/01 06:34:22;;;;;;;40.70;25.00;;;102.70;1971.20;;;;;;5042817;28;20108;-78
2021/03/01 06:37:07;;;;;;;44.57;24.40;;;102.70;1996.80;;;;;;5037376;28;20045;-77
2021/03/01 06:39:40;;;;;;;45.07;24.93;;;102.50;1996.80;;;;;;5032948;28;20060;-76
2021/03/01 06:42:18;;;;;;;52.30;28.48;;;102.60;2099.20;;;;;;5031768;28;20112;-74
2021/03/01 06:45:00;;;;;;;46.47;26.80;;;102.60;1971.20;;;;;;5031737;28;20037;-77
2021/03/01 06:47:53;;;;;;;52.03;28.00;;;102.60;2022.40;;;;;;5033083;28;20080;-74
2021/03/01 06:50:42;;;;;;;46.53;27.63;;;102.60;1971.20;;;;;;5045887;28;20104;-76
2021/03/01 06:53:11;;;;;;;50.07;27.20;;;102.70;2022.40;;;;;;5052611;28;20679;-78
2021/03/01 06:55:39;;;;;;;58.83;27.53;;;102.60;2022.40;;;;;;5051607;28;20024;-74
2021/03/01 06:58:18;;;;;;;71.20;39.13;;;102.70;1996.80;;;;;;5052864;28;20032;-74
2021/03/01 07:00:45;;;;;;;77.33;42.17;;;102.80;2022.40;;;;;;5049628;28;20029;-77
2021/03/01 07:03:23;;;;;;;91.53;40.63;;;102.90;1996.80;;;;;;5039389;28;20034;-75
2021/03/01 07:05:51;;;;;;;47.20;24.23;;;103.10;2022.40;;;;;;5041554;28;20032;-77
2021/03/01 07:08:54;;;;;;;48.90;24.38;;;102.80;2022.40;;;;;;5040134;28;20026;-75
2021/03/01 07:11:27;;;;;;;73.10;32.67;;;102.90;1945.60;;;;;;5036500;28;20025;-75
2021/03/01 07:14:03;;;;;;;61.17;30.20;;;103.10;1920.00;;;;;;5035398;28;20029;-74
2021/03/01 07:16:34;;;;;;;78.90;38.03;;;103.30;1920.00;;;;;;5039279;28;20025;-74
2021/03/01 07:19:01;;;;;;;54.63;27.48;;;128.10;1945.60;;;;;;5040848;28;20073;-73
2021/03/01 07:21:27;;;;;;;52.00;28.92;;;128.40;1971.20;;;;;;5046261;28;20478;-75
2021/03/01 07:23:55;;;;;;;53.83;28.13;;;128.60;1945.60;;;;;;5044696;28;20505;-74
2021/03/01 07:26:26;;;;;;;42.97;25.30;;;153.60;1894.40;;;;;;5046196;28;20059;-73
2021/03/01 07:28:55;;;;;;;38.33;22.87;;;154.20;1817.60;;;;;;5046775;28;20101;-73
2021/03/01 07:31:22;;;;;;;43.10;27.90;;;179.50;1766.40;;;;;;5042796;28;20014;-73
2021/03/01 07:33:48;;;;;;;35.95;27.77;;;205.60;1612.80;;;;;;5045154;28;20017;-75
2021/03/01 07:36:16;;;;;;;34.25;24.38;;;231.20;1459.20;;;;;;5045211;28;20066;-75
2021/03/01 07:38:43;;;;;;;84.30;75.45;;;281.70;1382.40;;;;;;5044033;28;20026;-75
2021/03/01 07:41:09;;;;;;;81.18;63.35;;;307.40;1305.60;;;;;;5044745;28;20025;-75
2021/03/01 07:43:40;;;;;;;162.07;137.77;;;333.00;1254.40;;;;;;5045006;28;20028;-74
2021/03/01 07:46:06;;;;;;;59.17;52.85;;;333.70;1203.20;;;;;;5045334;28;20091;-76
2021/03/01 07:48:41;;;;;;;57.63;40.78;;;358.90;1152.00;;;;;;5042836;28;20025;-75
2021/03/01 07:51:09;;;;;;;56.47;29.17;;;359.30;1100.80;;;;;;5042406;28;20033;-73
2021/03/01 07:53:50;;;;;;;47.55;28.05;;;384.10;1075.20;;;;;;5044008;28;20159;-76
2021/03/01 07:56:25;;;;;;;31.33;18.95;;;384.80;998.40;;;;;;5042245;28;20108;-76
2021/03/01 07:58:56;;;;;;;31.58;20.42;;;409.60;1049.60;;;;;;5041819;28;20017;-75
2021/03/01 08:01:22;;;;;;;30.15;18.27;;;384.80;998.40;;;;;;5044215;28;20024;-73
2021/03/01 08:03:48;;;;;;;36.60;20.10;;;384.40;1024.00;;;;;;5035244;28;20104;-73
2021/03/01 08:06:14;;;;;;;33.60;22.15;;;384.30;1049.60;;;;;;5042638;28;20045;-74
2021/03/01 08:08:43;;;;;;;25.85;17.90;;;384.30;1024.00;;;;;;5052036;28;20087;-75
2021/03/01 08:11:10;;;;;;;29.05;19.77;;;384.30;1024.00;;;;;;5040026;28;20451;-74
2021/03/01 08:13:36;;;;;;;44.75;23.08;;;384.50;1024.00;;;;;;5035111;28;20374;-74
2021/03/01 08:16:23;;;;;;;24.63;16.60;;;384.10;1049.60;;;;;;5035103;28;20464;-74
2021/03/01 08:18:58;;;;;;;30.08;18.30;;;359.30;1100.80;;;;;;5033856;28;20057;-74
2021/03/01 08:22:05;;;;;;;25.15;16.52;;;359.20;1075.20;;;;;;5041407;28;20021;-74
2021/03/01 08:24:48;;;;;;;27.15;17.30;;;358.60;1152.00;;;;;;5075642;28;20036;-76
2021/03/01 08:27:26;;;;;;;24.73;18.97;;;333.30;1177.60;;;;;;5044526;28;20021;-76
2021/03/01 08:30:24;;;;;;;25.13;17.67;;;333.50;1177.60;;;;;;5041901;28;20624;-74
2021/03/01 08:33:25;;;;;;;22.83;17.08;;;333.70;1152.00;;;;;;5043033;28;20024;-75
2021/03/01 08:36:13;;;;;;;25.38;17.33;;;333.60;1152.00;;;;;;5002117;28;20025;-75
2021/03/01 08:38:46;;;;;;;24.10;14.75;;;358.60;1126.40;;;;;;5001494;28;20038;-74
2021/03/01 08:41:16;;;;;;;24.95;18.35;;;333.70;1152.00;;;;;;4985729;28;20022;-75
2021/03/01 08:43:52;;;;;;;26.85;15.05;;;358.40;1177.60;;;;;;4993485;28;20026;-74
2021/03/01 08:46:21;;;;;;;31.75;15.32;;;358.70;1126.40;;;;;;4977015;28;20038;-74
2021/03/01 08:48:52;;;;;;;126.38;24.35;;;358.40;1177.60;;;;;;4976815;28;20022;-76
2021/03/01 08:51:19;;;;;;;30.30;19.55;;;333.60;1203.20;;;;;;5005897;28;20506;-74
2021/03/01 08:53:45;;;;;;;29.98;16.67;;;358.60;1177.60;;;;;;5012379;28;20054;-74
2021/03/01 08:56:37;;;;;;;29.65;19.40;;;358.60;1203.20;;;;;;4996108;28;20033;-74
2021/03/01 08:59:21;;;;;;;29.63;19.38;;;333.70;1177.60;;;;;;5010909;28;20049;-74
2021/03/01 09:01:50;;;;;;;26.88;17.00;;;358.50;1152.00;;;;;;5012594;28;20057;-74
2021/03/01 09:04:15;;;;;;;24.33;17.05;;;358.70;1152.00;;;;;;5012538;28;20092;-74
2021/03/01 09:06:41;;;;;;;23.77;16.50;;;358.80;1126.40;;;;;;4996110;28;20120;-74
2021/03/01 09:09:08;;;;;;;34.10;20.05;;;358.50;1177.60;;;;;;5009110;28;20025;-73
2021/03/01 09:11:36;;;;;;;26.55;17.40;;;333.50;1177.60;;;;;;5025700;28;20040;-75
2021/03/01 09:14:06;;;;;;;25.50;17.02;;;333.30;1203.20;;;;;;5052718;28;20024;-75
2021/03/01 09:16:40;;;;;;;24.17;16.88;;;358.40;1203.20;;;;;;5054106;28;20385;-75
2021/03/01 09:19:07;;;;;;;;;;;358.50;1228.80;;;;;;5054541;28;20017;-74
2021/03/01 09:21:37;;;;;;;29.60;16.95;;;358.60;1126.40;;;;;;5052748;28;19905;-74
2021/03/01 09:24:04;;;;;;;25.23;16.90;;;359.00;1126.40;;;;;;5054000;28;20068;-73
2021/03/01 09:26:37;;;;;;;24.70;17.02;;;384.00;1100.80;;;;;;5052643;28;20017;-74
2021/03/01 09:29:31;;;;;;;25.92;17.73;;;384.10;1075.20;;;;;;5053983;28;20029;-73
2021/03/01 09:31:57;;;;;;;25.75;15.98;;;359.00;1152.00;;;;;;5049474;28;20112;-75
2021/03/01 09:34:27;;;;;;;25.25;16.13;;;358.70;1152.00;;;;;;5043166;28;20104;-76
2021/03/01 09:36:53;;;;;;;22.20;15.75;;;358.40;1177.60;;;;;;5042983;28;20021;-74
2021/03/01 09:39:21;;;;;;;25.83;16.70;;;333.30;1254.40;;;;;;5051455;28;20028;-74
2021/03/01 09:41:50;;;;;;;32.70;20.38;;;332.80;1254.40;;;;;;5052898;28;20482;-74
2021/03/01 09:44:23;;;;;;;28.55;18.70;;;308.00;1280.00;;;;;;5053579;28;20033;-74
2021/03/01 09:46:51;;;;;;;25.48;18.25;;;307.80;1280.00;;;;;;5053576;28;20017;-74
2021/03/01 09:49:17;;;;;;;27.33;17.13;;;307.70;1305.60;;;;;;5053528;28;20060;-74
2021/03/01 09:51:46;;;;;;;27.33;17.05;;;307.70;1331.20;;;;;;5052056;28;20042;-74
2021/03/01 09:54:12;;;;;;;29.35;18.98;;;307.40;1305.60;;;;;;5052127;28;20037;-74
2021/03/01 09:56:40;;;;;;;25.80;15.85;;;282.50;1331.20;;;;;;5053382;28;20028;-75
2021/03/01 09:59:06;;;;;;;28.75;18.70;;;282.50;1382.40;;;;;;5053654;28;20021;-74
2021/03/01 10:01:32;;;;;;;29.20;18.20;;;282.40;1408.00;;;;;;5053593;28;20029;-74
2021/03/01 10:03:58;;;;;;;27.45;18.15;;;307.20;1382.40;;;;;;5050300;28;20029;-75
2021/03/01 10:06:39;;;;;;;23.15;15.88;;;307.20;1356.80;;;;;;5053137;28;20065;-75
2021/03/01 10:09:14;;;;;;;25.38;15.85;;;307.20;1382.40;;;;;;5043126;28;20028;-74
2021/03/01 10:11:39;;;;;;;28.30;17.75;;;307.30;1382.40;;;;;;5041085;28;20075;-74
2021/03/01 10:14:11;;;;;;;31.30;19.05;;;307.40;1331.20;;;;;;5042113;28;20029;-74
2021/03/01 10:16:38;;;;;;;21.90;15.40;;;307.40;1331.20;;;;;;5037557;28;20021;-75
2021/03/01 10:19:18;;;;;;;35.75;22.60;;;307.20;1331.20;;;;;;5034168;28;20040;-74
2021/03/01 10:21:49;;;;;;;23.35;16.50;;;307.40;1331.20;;;;;;5039869;28;20555;-74
2021/03/01 10:24:17;;;;;;;29.27;18.48;;;307.60;1331.20;;;;;;5040452;28;20069;-75
2021/03/01 10:26:57;;;;;;;28.63;16.55;;;307.70;1331.20;;;;;;5030920;28;20554;-75
2021/03/01 10:29:39;;;;;;;27.25;18.35;;;307.50;1331.20;;;;;;5039014;28;20502;-75
2021/03/01 10:32:17;;;;;;;27.10;17.83;;;307.50;1331.20;;;;;;5036856;28;20116;-75
2021/03/01 10:34:43;;;;;;;43.10;24.02;;;307.50;1305.60;;;;;;5047031;28;20537;-74
2021/03/01 10:37:11;;;;;;;26.55;16.77;;;307.50;1331.20;;;;;;5043592;28;20029;-75
2021/03/01 10:39:46;;;;;;;26.10;17.58;;;307.60;1331.20;;;;;;5042827;28;20038;-75
2021/03/01 10:42:20;;;;;;;33.28;21.45;;;307.60;1331.20;;;;;;5040039;28;20096;-75
2021/03/01 10:44:57;;;;;;;24.65;16.77;;;307.70;1331.20;;;;;;5041355;28;20033;-75
2021/03/01 10:47:34;;;;;;;34.03;21.48;;;307.70;1305.60;;;;;;5040412;28;20024;-74
2021/03/01 10:50:05;;;;;;;25.50;16.48;;;307.70;1356.80;;;;;;5013313;28;20076;-75
2021/03/01 10:52:31;;;;;;;24.23;16.25;;;307.70;1331.20;;;;;;5028362;28;20437;-75
2021/03/01 10:54:58;;;;;;;48.28;16.92;;;307.70;1331.20;;;;;;5056686;28;20025;-75
2021/03/01 10:57:26;;;;;;;23.88;15.13;;;307.70;1331.20;;;;;;5055418;28;20025;-75
2021/03/01 10:59:58;;;;;;;29.77;16.70;;;307.70;1331.20;;;;;;5055404;28;20025;-74
2021/03/01 11:02:25;;;;;;;25.65;16.73;;;307.70;1331.20;;;;;;5056682;28;20021;-73
2021/03/01 11:04:51;;;;;;;30.45;18.88;;;307.80;1305.60;;;;;;5056501;28;20029;-74
2021/03/01 11:07:19;;;;;;;37.15;20.88;;;307.80;1305.60;;;;;;5056510;28;20018;-75
2021/03/01 11:09:45;;;;;;;25.58;17.52;;;307.80;1305.60;;;;;;5055183;28;20021;-74
2021/03/01 11:12:12;;;;;;;23.55;16.00;;;307.90;1305.60;;;;;;5056338;28;20058;-75
2021/03/01 11:14:38;;;;;;;25.00;16.80;;;307.90;1305.60;;;;;;5055190;28;20025;-74
2021/03/01 11:17:04;;;;;;;24.63;16.00;;;307.90;1280.00;;;;;;5050269;28;20039;-74
2021/03/01 11:19:30;;;;;;;25.23;16.67;;;307.90;1305.60;;;;;;5041970;28;20478;-74
2021/03/01 11:21:56;;;;;;;23.58;17.75;;;307.90;1305.60;;;;;;5039712;28;20021;-75
2021/03/01 11:24:22;;;;;;;26.95;18.15;;;308.00;1331.20;;;;;;5050532;28;20028;-75
2021/03/01 11:26:50;;;;;;;26.30;17.75;;;308.00;1331.20;;;;;;5045934;28;20101;-75
2021/03/01 11:29:17;;;;;;;50.70;18.10;;;308.10;1331.20;;;;;;5042240;28;20022;-76
2021/03/01 11:31:43;;;;;;;31.27;17.92;;;332.80;1331.20;;;;;;5047491;28;20097;-75
2021/03/01 11:34:09;;;;;;;37.85;18.23;;;332.80;1331.20;;;;;;5044849;28;20100;-75
2021/03/01 11:36:35;;;;;;;32.53;20.65;;;332.80;1356.80;;;;;;5046135;28;20058;-76
2021/03/01 11:39:03;;;;;;;27.27;16.80;;;332.90;1331.20;;;;;;5044117;28;20497;-75
2021/03/01 11:41:29;;;;;;;29.27;17.88;;;333.00;1331.20;;;;;;5036171;28;20378;-75
2021/03/01 11:43:54;;;;;;;30.17;20.70;;;333.00;1331.20;;;;;;5032613;28;20121;-75
2021/03/01 11:46:21;;;;;;;25.25;19.10;;;332.90;1331.20;;;;;;5033024;28;20359;-74
2021/03/01 11:48:48;;;;;;;27.85;19.20;;;332.90;1356.80;;;;;;5033929;28;20429;-75
2021/03/01 11:51:15;;;;;;;28.30;19.85;;;333.00;1356.80;;;;;;5033959;28;20079;-76
2021/03/01 11:53:42;;;;;;;28.58;19.17;;;333.20;1356.80;;;;;;5035260;28;20045;-75
2021/03/01 11:56:09;;;;;;;27.77;19.73;;;333.20;1331.20;;;;;;5034432;28;20509;-75
2021/03/01 11:58:38;;;;;;;26.90;19.13;;;333.20;1331.20;;;;;;5035718;28;20021;-75
2021/03/01 12:01:06;;;;;;;35.63;21.05;;;333.20;1331.20;;;;;;5035622;28;20490;-75
2021/03/01 12:03:32;;;;;;;26.48;17.67;;;333.30;1331.20;;;;;;5035497;28;20036;-74
2021/03/01 12:05:58;;;;;;;24.08;16.58;;;333.20;1331.20;;;;;;5034790;28;20036;-75
2021/03/01 12:08:25;;;;;;;23.95;17.58;;;333.20;1305.60;;;;;;5035506;28;20025;-75
2021/03/01 12:10:52;;;;;;;25.48;17.75;;;333.30;1331.20;;;;;;5035672;28;20029;-75